Etusivu
METAR-TAF:

METAR-TAF

Lentoasemat :

Östersund-Frösön, Ruotsi

Åre Östersundin lentoasema

Leveyspiiri: 63-11N, Pituuspiiri: 014-30E, korkeus merenpinnasta: 376 m

Tämänhetkinen sää

Tämä raportti tehtiin 36 minuuttia sitten, kello 22.20 UTC
Tuuli 9 kn etelästä/lounaasta
Lämpötila -1°C
Kosteus 69%
Ilmanpaine 993 hPa
Näkyvyys 10 km tai enemmän
ei pilviä alle 1500 m:ssä eikä cumulonimbus-pilviä

METAR: ESNZ 172220Z 20009KT CAVOK M01/M06 Q0993

Aika: 23:56 (22:56 UTC)

Sääennuste

Tämä raportti tehtiin 2 tuntia ja 26 minuuttia sitten, kello 20.30 UTC
Ennuste voimassa 17. päivästä klo 21 UTC - 17. päivään klo 23 UTC
Tuuli 8 kn etelästä/lounaasta
Näkyvyys 10 km tai enemmän
ei pilviä alle 1500 m:ssä eikä cumulonimbus-pilviä

TAF: ESNZ 172030Z 1721/1723 20008KT CAVOK

Säähavainnot ja -ennusteet yli 4000 lentoasemalta (METAR- ja TAF-raportit).

Käytössä olevat sääasemat on merkitty karttaan keltaisilla ja punaisilla pisteillä.

Aseta hiiri pisteen päälle nähdäksesi sääaseman nimen.

Klikkaa sitten nähdäksesi säähavainnot ja -ennusteet.

Kartan vaihtaminen: klikkaa mustalla rastilla varustettuja vihreitä pisteitä, niin voit zoomata sisään; viivalla varustettua vihreää pistettä, niin voit zoomata ulos tai vihreitä nuolia, niin pääset viereisille kartoille.


METAR-TAF: